Ancora, New Jersey
Current Conditions -  °F | °C
As of 4:54 AM on Friday 21 Nov 2014 (Local Time) from KACY Reporting Station
Clear Clear  
Wind Chill: 17°   Ceiling: Unl
Heat Index: 28°   Visibility: 10mi
Dew Point:   Wind: 15mph
Humidity: 45%   Direction: 300°WNW
Pressure: 30.19"   Gusts: 21mph
Location:  39.637°N, 74.7602°W
Report Text: KACY 210954Z 30013G18KT 10SM CLR M02/M13 A3019 RMK AO2 SLP224 T10221128
Loading
Personal Weather Stations






























Interactive Weather Map New forecast layout! Learn more

10-Day Weather Forecast

Advertisements
Track Severe Weather on mobile